Time;durP1;ratioP1;P1;durP2;ratioP2;P2;SDS_P1;SDS_P2;PMS_P1;PMS_P2;Temp;Humidity;BMP_temperature;BMP_pressure;BME280_temperature;BME280_humidity;BME280_pressure;Samples;Min_cycle;Max_cycle;Signal;HPM_P1;HPM_P2
2022/03/30 00:00:23;;;;;;;34.70;24.90;;;7.60;1.00;;;;;;5099303;28;20494;-61
2022/03/30 00:02:54;;;;;;;32.50;24.70;;;7.50;1.00;;;;;;5099790;28;20919;-61
2022/03/30 00:05:24;;;;;;;40.57;25.87;;;7.50;1.00;;;;;;5099626;28;20460;-61
2022/03/30 00:07:56;;;;;;;37.13;25.60;;;7.50;1.00;;;;;;5099180;28;20468;-60
2022/03/30 00:10:29;;;;;;;39.83;24.17;;;7.50;1.00;;;;;;5099471;28;20460;-60
2022/03/30 00:12:58;;;;;;;34.80;26.27;;;7.40;1.00;;;;;;5098676;28;20460;-60
2022/03/30 00:15:26;;;;;;;37.63;24.80;;;7.40;1.00;;;;;;5099325;28;20747;-61
2022/03/30 00:17:56;;;;;;;38.07;25.30;;;7.40;1.00;;;;;;5099008;28;20553;-60
2022/03/30 00:20:26;;;;;;;43.20;25.80;;;7.40;1.00;;;;;;5099062;28;20460;-61
2022/03/30 00:23:01;;;;;;;32.50;25.70;;;7.40;1.00;;;;;;5099432;28;20467;-60
2022/03/30 00:25:30;;;;;;;35.60;25.17;;;7.40;1.00;;;;;;5098421;28;20539;-60
2022/03/30 00:28:00;;;;;;;41.50;26.40;;;7.50;1.00;;;;;;5099398;28;20731;-60
2022/03/30 00:30:27;;;;;;;36.60;25.30;;;7.50;1.00;;;;;;5098454;28;20452;-60
2022/03/30 00:32:57;;;;;;;35.83;25.50;;;7.40;1.00;;;;;;5099022;28;20456;-60
2022/03/30 00:35:26;;;;;;;33.17;24.10;;;7.40;1.00;;;;;;5098754;28;20459;-60
2022/03/30 00:37:55;;;;;;;35.70;24.73;;;7.40;1.00;;;;;;5099069;28;20467;-61
2022/03/30 00:40:31;;;;;;;35.27;25.17;;;7.40;1.00;;;;;;5098289;28;20457;-61
2022/03/30 00:42:58;;;;;;;38.43;25.60;;;7.40;1.00;;;;;;5099142;28;20479;-60
2022/03/30 00:45:26;;;;;;;37.13;25.50;;;7.40;1.00;;;;;;5098515;28;20520;-61
2022/03/30 00:47:55;;;;;;;38.50;26.40;;;7.40;1.00;;;;;;5098579;28;20494;-61
2022/03/30 00:50:26;;;;;;;39.90;26.93;;;7.40;1.00;;;;;;5098411;28;20498;-61
2022/03/30 00:53:01;;;;;;;34.83;25.60;;;7.30;1.00;;;;;;5091207;28;20531;-61
2022/03/30 00:55:28;;;;;;;37.27;27.83;;;7.30;1.00;;;;;;5097617;28;20427;-60
2022/03/30 00:57:58;;;;;;;33.77;25.73;;;7.30;1.00;;;;;;5096598;28;20468;-61
2022/03/30 01:00:35;;;;;;;40.17;28.10;;;7.40;1.00;;;;;;5095946;28;20443;-61
2022/03/30 01:03:02;;;;;;;38.57;28.03;;;7.30;1.00;;;;;;5097359;28;20467;-61
2022/03/30 01:05:31;;;;;;;37.40;26.00;;;7.30;1.00;;;;;;5096451;28;20496;-61
2022/03/30 01:07:59;;;;;;;42.10;28.67;;;7.30;1.00;;;;;;5097024;28;20465;-61
2022/03/30 01:10:29;;;;;;;39.27;26.97;;;7.30;1.00;;;;;;5097166;28;20462;-61
2022/03/30 01:13:00;;;;;;;40.00;25.73;;;7.30;1.00;;;;;;5097642;28;20460;-61
2022/03/30 01:15:27;;;;;;;38.30;26.70;;;7.20;1.00;;;;;;5098420;28;20510;-61
2022/03/30 01:17:54;;;;;;;41.63;27.90;;;7.30;1.00;;;;;;5097373;28;20481;-61
2022/03/30 01:20:22;;;;;;;39.20;27.90;;;7.20;1.00;;;;;;5097161;28;20970;-61
2022/03/30 01:22:55;;;;;;;37.67;26.57;;;7.20;1.00;;;;;;5096472;28;20760;-61
2022/03/30 01:25:23;;;;;;;39.33;27.50;;;7.20;1.00;;;;;;5098063;28;20492;-61
2022/03/30 01:27:53;;;;;;;38.47;26.20;;;7.20;1.00;;;;;;5097031;28;20465;-61
2022/03/30 01:33:07;;;;;;;40.00;26.47;;;7.20;1.00;;;;;;5097088;28;20521;-61
2022/03/30 01:35:35;;;;;;;41.03;24.83;;;7.20;1.00;;;;;;5097752;28;20563;-61
2022/03/30 01:38:09;;;;;;;38.03;27.70;;;7.10;1.00;;;;;;5097558;28;20747;-61
2022/03/30 01:40:38;;;;;;;43.57;26.93;;;7.10;1.00;;;;;;5097880;28;20486;-61
2022/03/30 01:43:10;;;;;;;43.27;26.07;;;7.00;1.00;;;;;;5097452;28;20541;-61
2022/03/30 01:45:42;;;;;;;40.67;27.13;;;7.00;1.00;;;;;;5097103;28;20929;-61
2022/03/30 01:48:09;;;;;;;33.93;25.07;;;7.10;1.00;;;;;;5097986;28;20488;-61
2022/03/30 01:50:39;;;;;;;48.80;28.67;;;7.00;1.00;;;;;;5097733;28;20610;-61
2022/03/30 01:53:08;;;;;;;38.20;27.27;;;7.00;1.00;;;;;;5097023;28;20460;-60
2022/03/30 01:55:38;;;;;;;34.60;25.73;;;7.00;1.00;;;;;;5097006;28;20799;-60
2022/03/30 01:58:10;;;;;;;39.33;26.07;;;6.90;1.00;;;;;;5097370;28;20456;-60
2022/03/30 02:00:37;;;;;;;38.10;27.17;;;6.90;1.00;;;;;;5097711;28;20460;-61
2022/03/30 02:03:04;;;;;;;43.97;27.87;;;6.80;1.00;;;;;;5097062;28;20460;-60
2022/03/30 02:05:32;;;;;;;38.13;26.43;;;6.80;1.00;;;;;;5097377;28;20553;-61
2022/03/30 02:08:02;;;;;;;41.40;28.40;;;6.80;1.00;;;;;;5097144;28;20488;-60
2022/03/30 02:10:38;;;;;;;35.37;26.10;;;6.70;1.00;;;;;;5097500;28;20949;-61
2022/03/30 02:13:05;;;;;;;39.50;27.43;;;6.70;1.00;;;;;;5097001;28;20527;-60
2022/03/30 02:15:37;;;;;;;34.40;26.93;;;6.60;1.00;;;;;;5096974;28;20547;-60
2022/03/30 02:18:06;;;;;;;38.47;25.87;;;6.60;1.00;;;;;;5096870;28;20487;-61
2022/03/30 02:20:35;;;;;;;38.73;27.47;;;6.50;1.00;;;;;;5097562;28;20456;-61
2022/03/30 02:23:02;;;;;;;38.60;25.70;;;6.40;1.00;;;;;;5097396;28;20525;-61
2022/03/30 02:25:34;;;;;;;35.50;26.10;;;6.40;1.00;;;;;;5095882;28;20488;-61
2022/03/30 02:28:03;;;;;;;35.77;25.43;;;6.40;1.00;;;;;;5096923;28;20464;-61
2022/03/30 02:30:33;;;;;;;39.20;27.10;;;6.30;1.00;;;;;;5096625;28;20464;-61
2022/03/30 02:33:03;;;;;;;37.27;25.87;;;6.30;1.00;;;;;;5097437;28;20473;-61
2022/03/30 02:35:32;;;;;;;39.90;25.83;;;6.30;1.00;;;;;;5096026;28;20510;-61
2022/03/30 02:37:59;;;;;;;49.13;27.83;;;6.20;1.00;;;;;;5097001;28;20461;-61
2022/03/30 02:40:29;;;;;;;40.33;27.70;;;6.20;1.00;;;;;;5096108;28;20496;-61
2022/03/30 02:42:59;;;;;;;43.43;26.67;;;6.10;1.00;;;;;;5097210;28;20460;-61
2022/03/30 02:45:29;;;;;;;39.17;26.50;;;6.10;1.00;;;;;;5095882;28;20964;-61
2022/03/30 02:50:49;;;;;;;43.97;27.00;;;6.00;1.00;;;;;;5096625;28;20896;-61
2022/03/30 02:53:16;;;;;;;39.40;25.80;;;5.90;1.00;;;;;;5096877;28;20463;-61
2022/03/30 02:55:45;;;;;;;37.47;27.03;;;5.90;1.00;;;;;;5096166;28;20946;-61
2022/03/30 02:58:23;;;;;;;37.37;26.80;;;5.90;1.00;;;;;;5096855;28;20464;-61
2022/03/30 03:00:50;;;;;;;37.33;25.93;;;5.90;1.00;;;;;;5095599;28;20461;-61
2022/03/30 03:03:22;;;;;;;46.00;27.10;;;5.90;1.00;;;;;;5096990;28;20460;-61
2022/03/30 03:05:55;;;;;;;35.40;24.50;;;5.90;1.00;;;;;;5096243;28;20917;-61
2022/03/30 03:08:22;;;;;;;43.20;26.50;;;5.80;1.00;;;;;;5076540;28;20526;-61
2022/03/30 03:10:52;;;;;;;42.70;25.83;;;5.80;1.00;;;;;;5082453;28;20548;-61
2022/03/30 03:13:26;;;;;;;42.80;27.80;;;5.70;1.00;;;;;;5096934;28;20467;-61
2022/03/30 03:15:52;;;;;;;43.63;27.47;;;5.70;1.00;;;;;;5096591;28;20463;-61
2022/03/30 03:18:20;;;;;;;42.37;28.80;;;5.70;1.00;;;;;;5095451;28;20485;-61
2022/03/30 03:20:51;;;;;;;43.60;30.20;;;5.70;1.00;;;;;;5097739;28;21035;-61
2022/03/30 03:23:21;;;;;;;36.37;27.00;;;5.60;1.00;;;;;;5100638;28;20461;-61
2022/03/30 03:25:48;;;;;;;39.10;27.43;;;5.60;1.00;;;;;;5100451;28;20498;-61
2022/03/30 03:28:18;;;;;;;40.47;26.37;;;5.50;1.00;;;;;;5099421;28;20460;-61
2022/03/30 03:30:50;;;;;;;38.20;25.60;;;5.50;1.00;;;;;;5100020;28;20467;-61
2022/03/30 03:33:18;;;;;;;42.03;27.77;;;5.40;1.00;;;;;;5099928;28;20497;-61
2022/03/30 03:35:47;;;;;;;43.87;29.57;;;5.40;1.00;;;;;;5100429;28;20479;-61
2022/03/30 03:38:14;;;;;;;43.17;26.67;;;5.40;1.00;;;;;;5099449;28;20471;-61
2022/03/30 03:40:41;;;;;;;46.00;27.60;;;5.40;1.00;;;;;;5100086;28;20480;-61
2022/03/30 03:43:09;;;;;;;38.70;27.10;;;5.40;1.00;;;;;;5099648;28;20902;-61
2022/03/30 03:45:36;;;;;;;45.70;27.87;;;5.40;1.00;;;;;;5099340;28;20502;-61
2022/03/30 03:48:17;;;;;;;47.57;27.53;;;5.40;1.00;;;;;;5099554;28;20938;-61
2022/03/30 03:50:45;;;;;;;40.80;28.27;;;5.30;1.00;;;;;;5100384;28;20513;-61
2022/03/30 03:53:15;;;;;;;40.50;26.90;;;5.30;1.00;;;;;;5099442;28;20457;-61
2022/03/30 03:55:43;;;;;;;38.20;25.10;;;5.30;1.00;;;;;;5099566;28;20510;-61
2022/03/30 03:58:13;;;;;;;38.37;27.40;;;5.30;1.00;;;;;;5099063;28;20504;-61
2022/03/30 04:00:41;;;;;;;47.47;26.40;;;5.30;1.00;;;;;;5099894;28;20555;-61
2022/03/30 04:03:14;;;;;;;40.53;25.63;;;5.30;1.00;;;;;;5099622;28;20563;-61
2022/03/30 04:05:41;;;;;;;41.87;26.87;;;5.20;1.00;;;;;;5099772;28;20492;-61
2022/03/30 04:08:10;;;;;;;49.00;26.27;;;5.20;1.00;;;;;;5099569;28;20752;-61
2022/03/30 04:10:39;;;;;;;46.13;28.10;;;5.20;1.00;;;;;;5099097;28;20465;-61
2022/03/30 04:13:06;;;;;;;40.00;26.53;;;5.10;1.00;;;;;;5099443;28;20464;-61
2022/03/30 04:15:34;;;;;;;37.90;25.13;;;5.10;1.00;;;;;;5098605;28;20436;-61
2022/03/30 04:18:03;;;;;;;44.00;28.57;;;5.00;3.90;;;;;;5099145;28;20794;-61
2022/03/30 04:20:32;;;;;;;41.93;27.50;;;5.00;15.00;;;;;;5098522;28;20468;-61
2022/03/30 04:23:02;;;;;;;44.20;26.30;;;5.00;24.70;;;;;;5098837;28;20533;-61
2022/03/30 04:25:34;;;;;;;45.30;27.73;;;5.10;30.30;;;;;;5098813;28;20492;-61
2022/03/30 04:28:06;;;;;;;40.23;26.83;;;5.10;33.70;;;;;;5098526;28;20468;-61
2022/03/30 04:30:35;;;;;;;38.90;25.70;;;5.00;44.70;;;;;;5099049;28;20471;-60
2022/03/30 04:33:05;;;;;;;43.10;26.57;;;5.00;49.40;;;;;;5096599;28;20507;-61
2022/03/30 04:35:34;;;;;;;39.00;26.43;;;5.00;67.20;;;;;;5097248;28;20519;-60
2022/03/30 04:38:05;;;;;;;41.97;26.10;;;5.00;67.90;;;;;;5096912;28;20973;-61
2022/03/30 04:40:33;;;;;;;46.47;27.53;;;5.00;60.20;;;;;;5094892;28;20890;-60
2022/03/30 04:43:08;;;;;;;43.57;27.33;;;5.00;60.80;;;;;;5095968;28;20559;-61
2022/03/30 04:45:34;;;;;;;39.40;25.90;;;4.90;65.30;;;;;;5097206;28;20495;-60
2022/03/30 04:48:04;;;;;;;38.07;24.80;;;4.90;58.50;;;;;;5096770;28;20489;-60
2022/03/30 04:50:33;;;;;;;37.13;26.00;;;4.80;61.20;;;;;;5097219;28;20456;-60
2022/03/30 04:53:00;;;;;;;41.37;25.60;;;4.80;58.20;;;;;;5096058;28;20505;-61
2022/03/30 04:55:27;;;;;;;45.37;24.30;;;4.70;73.30;;;;;;5095711;28;20452;-61
2022/03/30 04:57:59;;;;;;;36.97;25.10;;;4.60;91.60;;;;;;5091209;28;20448;-60
2022/03/30 05:00:26;;;;;;;44.50;27.30;;;4.60;94.80;;;;;;5096236;28;20809;-60
2022/03/30 05:02:57;;;;;;;51.83;26.53;;;4.60;99.90;;;;;;5093716;28;20554;-61
2022/03/30 05:05:27;;;;;;;43.00;26.07;;;4.60;99.90;;;;;;5097140;28;20490;-61
2022/03/30 05:07:56;;;;;;;45.37;26.17;;;4.50;99.90;;;;;;5093274;28;20925;-61
2022/03/30 05:10:26;;;;;;;42.90;27.23;;;4.50;99.90;;;;;;5094518;28;20901;-60
2022/03/30 05:12:54;;;;;;;47.87;27.90;;;4.50;99.90;;;;;;5094917;28;20514;-61
2022/03/30 05:15:23;;;;;;;44.53;26.43;;;4.50;99.90;;;;;;5095899;28;20453;-61
2022/03/30 05:17:52;;;;;;;39.70;25.60;;;4.40;99.90;;;;;;5095814;28;20962;-61
2022/03/30 05:20:21;;;;;;;41.80;25.67;;;4.40;99.90;;;;;;5096707;28;20464;-60
2022/03/30 05:22:49;;;;;;;47.27;26.07;;;4.30;99.90;;;;;;5097118;28;20558;-61
2022/03/30 05:25:20;;;;;;;35.73;24.30;;;4.30;99.90;;;;;;5097395;28;20801;-60
2022/03/30 05:27:49;;;;;;;42.53;24.93;;;4.20;99.90;;;;;;5096125;28;20567;-60
2022/03/30 05:30:16;;;;;;;43.27;27.30;;;4.20;99.90;;;;;;5096710;28;20814;-61
2022/03/30 05:32:45;;;;;;;44.30;26.87;;;4.20;99.90;;;;;;5096596;28;20900;-61
2022/03/30 05:35:16;;;;;;;43.70;26.20;;;4.40;99.90;;;;;;5098100;28;20538;-61
2022/03/30 05:37:47;;;;;;;44.40;27.70;;;4.30;99.90;;;;;;5094503;28;20460;-61
2022/03/30 05:40:22;;;;;;;42.27;25.33;;;4.30;99.90;;;;;;5096560;28;20503;-60
2022/03/30 05:42:52;;;;;;;38.97;23.57;;;4.30;99.90;;;;;;5093484;28;20500;-60
2022/03/30 05:45:21;;;;;;;42.10;26.73;;;4.40;99.90;;;;;;5096332;28;20489;-59
2022/03/30 05:47:51;;;;;;;43.03;26.73;;;4.40;99.90;;;;;;5095131;28;20526;-59
2022/03/30 05:50:21;;;;;;;42.40;26.37;;;4.50;99.90;;;;;;5097041;28;20465;-59
2022/03/30 05:52:51;;;;;;;48.30;29.13;;;4.50;99.90;;;;;;5096673;28;20475;-60
2022/03/30 05:55:19;;;;;;;52.57;28.27;;;4.60;99.90;;;;;;5097576;28;20468;-60
2022/03/30 05:57:46;;;;;;;46.97;27.93;;;4.60;99.90;;;;;;5095619;28;20464;-59
2022/03/30 06:00:16;;;;;;;47.30;27.30;;;4.60;99.90;;;;;;5095989;28;20893;-59
2022/03/30 06:02:43;;;;;;;42.50;26.53;;;4.70;99.90;;;;;;5095905;28;20459;-59
2022/03/30 06:05:16;;;;;;;39.37;27.60;;;4.70;99.90;;;;;;5095551;28;20573;-60
2022/03/30 06:07:45;;;;;;;46.30;26.27;;;4.80;99.90;;;;;;5088294;28;20467;-59
2022/03/30 06:10:24;;;;;;;42.67;26.53;;;4.70;99.90;;;;;;5094421;28;20856;-60
2022/03/30 06:12:51;;;;;;;42.13;24.67;;;4.60;99.90;;;;;;5094219;28;20528;-60
2022/03/30 06:15:18;;;;;;;42.30;26.60;;;4.70;99.90;;;;;;5094812;28;20449;-59
2022/03/30 06:17:48;;;;;;;46.63;27.40;;;4.70;99.90;;;;;;5095106;28;20533;-59
2022/03/30 06:20:18;;;;;;;38.23;25.10;;;4.80;99.90;;;;;;5095324;28;20473;-59
2022/03/30 06:22:45;;;;;;;44.47;27.90;;;4.90;99.90;;;;;;5093242;28;20568;-60
2022/03/30 06:25:12;;;;;;;40.90;28.60;;;5.00;99.90;;;;;;5095847;28;20527;-59
2022/03/30 06:27:42;;;;;;;41.03;27.47;;;5.20;99.90;;;;;;5096938;28;20460;-59
2022/03/30 06:30:13;;;;;;;44.97;27.03;;;5.30;99.90;;;;;;5096293;28;20897;-59
2022/03/30 06:32:40;;;;;;;43.87;26.10;;;5.50;56.80;;;;;;5097061;28;20460;-60
2022/03/30 06:35:12;;;;;;;44.73;26.47;;;5.50;21.30;;;;;;5096078;28;20463;-59
2022/03/30 06:37:48;;;;;;;46.10;27.77;;;5.60;15.50;;;;;;5096035;28;20456;-59
2022/03/30 06:40:17;;;;;;;45.07;25.90;;;5.90;10.20;;;;;;5096784;28;20749;-59
2022/03/30 06:42:48;;;;;;;36.83;25.73;;;6.00;1.00;;;;;;5097195;28;20554;-60
2022/03/30 06:45:20;;;;;;;44.67;24.70;;;6.10;1.00;;;;;;5096920;28;20468;-60
2022/03/30 06:47:50;;;;;;;39.73;27.90;;;6.20;1.00;;;;;;5095844;28;20903;-60
2022/03/30 06:50:19;;;;;;;37.73;24.07;;;6.30;1.00;;;;;;5095479;28;20513;-60
2022/03/30 06:52:51;;;;;;;45.90;26.73;;;6.50;1.00;;;;;;5095229;28;20468;-59
2022/03/30 06:55:24;;;;;;;40.43;26.17;;;6.60;1.00;;;;;;5097551;28;20513;-60
2022/03/30 06:57:53;;;;;;;46.00;28.50;;;6.60;1.00;;;;;;5095024;28;20464;-60
2022/03/30 07:00:30;;;;;;;44.93;29.90;;;6.70;1.00;;;;;;5100041;28;20453;-59
2022/03/30 07:02:59;;;;;;;38.90;25.20;;;6.70;1.00;;;;;;5080853;28;20563;-59
2022/03/30 07:05:31;;;;;;;44.10;27.13;;;6.70;1.00;;;;;;5090448;28;20484;-59
2022/03/30 07:10:50;;;;;;;50.03;26.40;;;6.80;1.00;;;;;;5098441;28;20561;-60
2022/03/30 07:13:22;;;;;;;38.50;26.67;;;7.00;1.00;;;;;;5098775;28;20460;-60
2022/03/30 07:15:49;;;;;;;43.67;29.03;;;7.30;1.00;;;;;;5098941;28;20558;-59
2022/03/30 07:18:19;;;;;;;42.20;27.93;;;7.50;1.00;;;;;;5100348;28;20956;-60
2022/03/30 07:20:49;;;;;;;41.00;27.07;;;7.80;1.00;;;;;;5097721;28;20851;-61
2022/03/30 07:23:18;;;;;;;49.00;28.80;;;8.00;1.00;;;;;;5077939;28;20476;-60
2022/03/30 07:25:49;;;;;;;43.90;28.67;;;8.10;1.00;;;;;;5083843;28;20495;-60
2022/03/30 07:28:27;;;;;;;52.30;29.90;;;8.00;1.00;;;;;;5099243;28;20468;-60
2022/03/30 07:30:54;;;;;;;41.00;27.87;;;8.20;1.00;;;;;;5098488;28;20503;-61
2022/03/30 07:33:29;;;;;;;48.10;28.87;;;8.40;1.00;;;;;;5099137;28;21110;-60
2022/03/30 07:35:56;;;;;;;40.47;29.17;;;8.60;1.00;;;;;;5099232;28;20460;-60
2022/03/30 07:38:24;;;;;;;43.07;26.30;;;8.50;1.00;;;;;;5098523;28;20966;-60
2022/03/30 07:40:53;;;;;;;37.63;26.90;;;8.70;1.00;;;;;;5099578;28;20468;-59
2022/03/30 07:43:20;;;;;;;38.00;25.40;;;9.20;1.00;;;;;;5098692;28;20885;-61
2022/03/30 07:45:53;;;;;;;39.73;26.10;;;9.00;1.00;;;;;;5098879;28;20932;-59
2022/03/30 07:48:25;;;;;;;38.60;24.70;;;9.10;1.00;;;;;;5098942;28;20460;-60
2022/03/30 07:50:54;;;;;;;34.30;23.73;;;9.10;1.00;;;;;;5100086;28;20795;-60
2022/03/30 07:53:29;;;;;;;33.77;23.70;;;9.10;1.00;;;;;;5093704;28;20507;-59
2022/03/30 07:55:59;;;;;;;32.90;23.00;;;8.90;1.00;;;;;;5087729;28;20462;-61
2022/03/30 07:58:26;;;;;;;34.00;22.97;;;8.90;1.00;;;;;;5095367;28;20464;-60
2022/03/30 08:00:58;;;;;;;33.73;22.30;;;9.50;1.00;;;;;;5099582;28;20460;-61
2022/03/30 08:03:25;;;;;;;33.93;23.70;;;9.60;1.00;;;;;;5099513;28;20460;-60
2022/03/30 08:05:58;;;;;;;39.07;24.07;;;10.20;1.00;;;;;;5081065;28;20744;-59
2022/03/30 08:08:30;;;;;;;33.67;24.40;;;10.80;1.00;;;;;;5091449;28;20917;-61
2022/03/30 08:10:59;;;;;;;32.70;23.23;;;10.70;99.90;;;;;;5098914;28;20457;-60
2022/03/30 08:13:32;;;;;;;30.63;21.70;;;10.70;99.90;;;;;;5098469;28;20779;-60
2022/03/30 08:16:06;;;;;;;28.70;21.70;;;10.70;99.90;;;;;;5093594;28;20473;-60
2022/03/30 08:18:33;;;;;;;32.10;21.30;;;10.60;99.90;;;;;;5088410;28;20550;-60
2022/03/30 08:23:47;;;;;;;28.07;20.27;;;10.70;99.90;;;;;;5093128;28;20445;-61
2022/03/30 08:26:22;;;;;;;27.03;21.77;;;10.80;99.90;;;;;;5086766;28;20492;-60
2022/03/30 08:28:50;;;;;;;27.90;20.90;;;11.00;99.90;;;;;;5083927;28;20486;-60
2022/03/30 08:31:20;;;;;;;42.20;22.90;;;10.70;99.90;;;;;;5099122;28;20517;-60
2022/03/30 08:33:47;;;;;;;33.33;20.90;;;10.90;99.90;;;;;;5098206;28;20464;-60
2022/03/30 08:36:14;;;;;;;33.33;21.50;;;11.40;99.90;;;;;;5098366;28;20905;-60
2022/03/30 08:38:45;;;;;;;28.80;20.10;;;11.20;99.90;;;;;;5098947;28;20534;-60
2022/03/30 08:41:14;;;;;;;31.57;21.80;;;10.50;99.90;;;;;;5099077;28;20888;-61
2022/03/30 08:43:41;;;;;;;28.73;21.07;;;11.20;99.90;;;;;;5098485;28;20460;-61
2022/03/30 08:46:14;;;;;;;29.90;20.80;;;11.80;99.90;;;;;;5098750;28;20496;-61
2022/03/30 08:48:42;;;;;;;33.33;23.53;;;11.90;99.90;;;;;;5098586;28;20464;-60
2022/03/30 08:51:10;;;;;;;28.87;20.80;;;12.10;99.90;;;;;;5098177;28;20961;-60
2022/03/30 08:53:49;;;;;;;30.80;21.00;;;12.30;99.90;;;;;;5096562;28;20747;-61
2022/03/30 08:56:17;;;;;;;30.93;22.30;;;12.50;99.90;;;;;;5095471;28;20537;-60
2022/03/30 08:58:46;;;;;;;27.67;20.00;;;12.80;99.90;;;;;;5096663;28;20439;-61
2022/03/30 09:01:20;;;;;;;25.13;20.03;;;11.80;99.90;;;;;;5098112;28;20467;-60
2022/03/30 09:03:58;;;;;;;29.70;20.87;;;11.10;99.90;;;;;;5097559;28;20452;-61
2022/03/30 09:06:36;;;;;;;30.03;22.00;;;11.50;99.90;;;;;;5098316;28;20773;-61
2022/03/30 09:09:06;;;;;;;32.87;20.10;;;11.70;99.90;;;;;;5098214;28;20478;-60
2022/03/30 09:11:45;;;;;;;27.80;21.40;;;12.20;99.90;;;;;;5097799;28;20496;-60
2022/03/30 09:14:13;;;;;;;31.13;21.43;;;12.60;99.90;;;;;;5097210;28;20547;-61
2022/03/30 09:16:49;;;;;;;32.03;21.60;;;12.70;99.90;;;;;;5098303;28;20650;-61
2022/03/30 09:19:27;;;;;;;31.60;23.40;;;12.70;99.90;;;;;;5095391;28;20487;-60
2022/03/30 09:21:56;;;;;;;29.60;20.20;;;13.10;99.90;;;;;;5097842;28;20468;-62
2022/03/30 09:24:25;;;;;;;26.77;20.67;;;13.30;99.90;;;;;;5097187;28;20496;-61
2022/03/30 09:26:58;;;;;;;31.33;20.00;;;13.20;99.90;;;;;;5097629;28;20492;-62
2022/03/30 09:29:27;;;;;;;26.67;19.90;;;12.40;99.90;;;;;;5097437;28;20509;-61
2022/03/30 09:31:55;;;;;;;31.27;19.70;;;12.70;99.90;;;;;;5097121;28;20760;-62
2022/03/30 09:34:34;;;;;;;26.07;18.60;;;12.70;99.90;;;;;;5097879;28;20459;-61
2022/03/30 09:37:13;;;;;;;27.43;19.90;;;12.50;99.90;;;;;;5096452;28;20555;-61
2022/03/30 09:39:49;;;;;;;25.80;19.90;;;13.10;99.90;;;;;;5097000;28;20778;-61
2022/03/30 09:42:17;;;;;;;24.60;19.10;;;12.40;99.90;;;;;;5097812;28;20740;-61
2022/03/30 09:44:53;;;;;;;29.90;20.70;;;12.30;99.90;;;;;;5096912;28;20547;-60
2022/03/30 09:47:21;;;;;;;28.50;19.67;;;12.40;99.90;;;;;;5097132;28;20523;-60
2022/03/30 09:49:52;;;;;;;28.10;19.03;;;13.30;99.90;;;;;;5097483;28;20909;-59
2022/03/30 09:52:21;;;;;;;24.97;18.60;;;14.00;99.90;;;;;;5097569;28;20460;-60
2022/03/30 09:54:53;;;;;;;26.43;20.03;;;14.40;99.90;;;;;;5097649;28;20558;-59
2022/03/30 09:57:22;;;;;;;25.80;18.90;;;14.10;99.90;;;;;;5095428;28;20453;-60
2022/03/30 10:00:14;;;;;;;26.00;18.33;;;13.80;99.90;;;;;;5076644;28;20555;-60
2022/03/30 10:02:43;;;;;;;20.83;16.70;;;12.90;99.90;;;;;;5076776;28;20469;-60
2022/03/30 10:05:13;;;;;;;25.53;18.00;;;12.50;99.90;;;;;;5077713;28;20494;-59
2022/03/30 10:07:40;;;;;;;22.33;18.37;;;12.60;99.90;;;;;;5088726;28;20495;-60
2022/03/30 10:10:14;;;;;;;21.77;16.40;;;12.40;99.90;;;;;;5096728;28;20958;-59
2022/03/30 10:12:44;;;;;;;27.90;19.97;;;12.30;99.90;;;;;;5097333;28;20464;-62
2022/03/30 10:15:15;;;;;;;23.50;18.80;;;12.20;99.90;;;;;;5087048;28;20552;-62
2022/03/30 10:17:44;;;;;;;25.30;17.20;;;12.70;99.90;;;;;;5095921;28;20534;-62
2022/03/30 10:20:17;;;;;;;22.83;16.00;;;13.90;99.90;;;;;;5097331;28;20801;-61
2022/03/30 10:23:19;;;;;;;22.97;17.60;;;14.50;99.90;;;;;;5097342;28;20461;-62
2022/03/30 10:26:08;;;;;;;22.93;17.93;;;13.70;99.90;;;;;;5097560;28;20456;-62
2022/03/30 10:28:58;;;;;;;23.20;19.70;;;14.00;99.90;;;;;;5096109;28;20452;-62
2022/03/30 10:31:30;;;;;;;26.73;20.00;;;15.10;99.90;;;;;;5091974;28;20555;-62
2022/03/30 10:33:57;;;;;;;21.80;19.10;;;15.60;99.90;;;;;;5087329;28;20547;-62
2022/03/30 10:36:29;;;;;;;26.20;19.00;;;15.30;99.90;;;;;;5097501;28;20468;-62
2022/03/30 10:39:27;;;;;;;19.13;17.20;;;15.30;99.90;;;;;;5096694;28;20487;-62
2022/03/30 10:42:04;;;;;;;20.07;16.00;;;15.20;99.90;;;;;;5097020;28;20511;-62
2022/03/30 10:44:38;;;;;;;19.10;16.83;;;14.70;99.90;;;;;;5077369;28;20889;-61
2022/03/30 10:47:16;;;;;;;21.43;17.53;;;15.20;99.90;;;;;;5079816;28;20578;-60
2022/03/30 10:50:08;;;;;;;20.50;15.70;;;15.90;99.90;;;;;;5096429;28;20461;-62
2022/03/30 10:52:47;;;;;;;21.30;17.43;;;15.70;99.90;;;;;;5096964;28;20456;-62
2022/03/30 10:55:36;;;;;;;20.60;16.43;;;15.70;99.90;;;;;;5096497;28;20773;-62
2022/03/30 10:58:22;;;;;;;22.50;18.10;;;15.40;99.90;;;;;;5086284;28;20737;-62
2022/03/30 11:01:11;;;;;;;20.80;17.47;;;14.80;99.90;;;;;;5096497;28;20506;-59
2022/03/30 11:03:56;;;;;;;18.47;16.00;;;15.90;99.90;;;;;;5096325;28;20472;-59
2022/03/30 11:06:23;;;;;;;28.30;18.50;;;16.40;99.90;;;;;;5097251;28;20499;-59
2022/03/30 11:08:58;;;;;;;18.60;16.60;;;16.90;99.90;;;;;;5097182;28;20453;-59
2022/03/30 11:11:34;;;;;;;19.17;16.23;;;17.20;99.90;;;;;;5077897;28;20467;-59
2022/03/30 11:14:27;;;;;;;18.73;16.77;;;16.90;99.90;;;;;;5091372;28;20471;-59
2022/03/30 11:16:58;;;;;;;20.03;17.23;;;16.90;99.90;;;;;;5097231;28;20465;-59
2022/03/30 11:19:29;;;;;;;17.87;16.07;;;16.40;99.90;;;;;;5096376;28;20453;-60
2022/03/30 11:22:16;;;;;;;21.97;18.20;;;16.60;99.90;;;;;;5096222;28;20753;-60
2022/03/30 11:25:05;;;;;;;22.20;16.47;;;16.10;99.90;;;;;;5092012;28;20517;-60
2022/03/30 11:27:37;;;;;;;16.70;14.97;;;14.80;99.90;;;;;;5096189;28;20492;-60
2022/03/30 11:30:20;;;;;;;18.30;15.17;;;15.40;99.90;;;;;;5092599;28;20775;-60
2022/03/30 11:33:19;;;;;;;19.20;16.87;;;15.90;99.90;;;;;;5094008;28;20460;-60
2022/03/30 11:35:50;;;;;;;18.70;15.80;;;15.70;99.90;;;;;;5074855;28;20461;-60
2022/03/30 11:38:27;;;;;;;17.90;16.00;;;15.90;99.90;;;;;;5075455;28;20898;-60
2022/03/30 11:41:06;;;;;;;21.10;16.03;;;16.50;99.90;;;;;;5088074;28;20456;-62
2022/03/30 11:45:12;;;;;;;18.53;16.67;;;16.70;99.90;;;;;;5099293;28;20550;-62
2022/03/30 11:46:32;;;;;;;19.40;16.80;;;16.20;99.90;;;;;;5095812;28;20737;-62
2022/03/30 11:49:06;;;;;;;17.80;15.90;;;15.90;99.90;;;;;;5099622;28;20484;-62
2022/03/30 11:51:37;;;;;;;15.03;13.40;;;15.40;99.90;;;;;;5098683;28;20460;-62
2022/03/30 11:54:19;;;;;;;19.03;15.53;;;15.80;99.90;;;;;;5099786;28;20470;-62
2022/03/30 11:56:52;;;;;;;17.50;15.40;;;16.40;99.90;;;;;;5099154;28;21271;-62
2022/03/30 11:59:20;;;;;;;17.80;15.90;;;16.40;99.90;;;;;;5096972;28;20537;-62
2022/03/30 12:01:47;;;;;;;19.80;16.30;;;16.30;99.90;;;;;;5097364;28;20456;-62
2022/03/30 12:04:14;;;;;;;14.60;13.17;;;17.10;99.90;;;;;;5096454;28;20467;-62
2022/03/30 12:06:50;;;;;;;14.83;13.20;;;16.40;99.90;;;;;;5097389;28;20881;-62
2022/03/30 12:09:23;;;;;;;15.23;13.73;;;16.10;99.90;;;;;;5098648;28;20456;-62
2022/03/30 12:11:54;;;;;;;16.17;13.77;;;16.20;99.90;;;;;;5095475;28;20456;-62
2022/03/30 12:14:26;;;;;;;19.60;14.33;;;15.80;99.90;;;;;;5093649;28;20483;-62
2022/03/30 12:16:53;;;;;;;17.63;14.33;;;15.80;99.90;;;;;;5094763;28;20885;-62
2022/03/30 12:19:26;;;;;;;17.40;13.50;;;16.00;99.90;;;;;;5075726;28;20918;-62
2022/03/30 12:21:54;;;;;;;17.23;13.27;;;16.20;99.90;;;;;;5077030;28;20465;-62
2022/03/30 12:24:33;;;;;;;14.57;12.93;;;16.30;99.90;;;;;;5076259;28;20520;-61
2022/03/30 12:27:01;;;;;;;14.80;13.07;;;16.20;99.90;;;;;;5074422;28;20469;-59
2022/03/30 12:29:32;;;;;;;15.17;13.50;;;16.80;99.90;;;;;;5077150;28;20530;-60
2022/03/30 12:32:02;;;;;;;12.33;11.13;;;16.30;99.90;;;;;;5077947;28;20526;-60
2022/03/30 12:34:34;;;;;;;17.03;13.30;;;15.80;99.90;;;;;;5075988;28;20465;-59
2022/03/30 12:37:03;;;;;;;16.10;12.97;;;16.00;99.90;;;;;;5074843;28;20530;-59
2022/03/30 12:39:38;;;;;;;13.50;11.60;;;15.90;99.90;;;;;;5070788;28;20582;-59
2022/03/30 12:42:13;;;;;;;13.07;11.70;;;15.70;99.90;;;;;;5075995;28;20539;-59
2022/03/30 12:44:42;;;;;;;13.13;11.70;;;15.10;99.90;;;;;;5072767;28;20462;-59
2022/03/30 12:47:20;;;;;;;17.27;13.33;;;15.80;99.90;;;;;;5075370;28;20458;-59
2022/03/30 12:49:51;;;;;;;15.63;12.73;;;16.60;99.90;;;;;;5075378;28;20582;-59
2022/03/30 12:52:24;;;;;;;14.93;13.43;;;16.50;99.90;;;;;;5075056;28;20453;-59
2022/03/30 12:54:58;;;;;;;13.97;12.20;;;15.90;99.90;;;;;;5077717;28;20450;-59
2022/03/30 12:57:32;;;;;;;15.63;13.53;;;14.90;99.90;;;;;;5076616;28;20468;-59
2022/03/30 13:00:18;;;;;;;17.13;13.23;;;15.00;99.90;;;;;;5075846;28;20464;-59
2022/03/30 13:02:45;;;;;;;13.83;12.23;;;16.40;99.90;;;;;;5076905;28;20489;-59
2022/03/30 13:05:24;;;;;;;16.30;13.10;;;17.40;99.90;;;;;;5077582;28;20487;-58
2022/03/30 13:07:54;;;;;;;13.20;11.40;;;17.70;99.90;;;;;;5076475;28;20520;-59
2022/03/30 13:10:25;;;;;;;13.23;11.80;;;17.60;99.90;;;;;;5076155;28;20546;-59